Time;durP1;ratioP1;P1;durP2;ratioP2;P2;SDS_P1;SDS_P2;PMS_P1;PMS_P2;Temp;Humidity;BMP_temperature;BMP_pressure;BME280_temperature;BME280_humidity;BME280_pressure;Samples;Min_cycle;Max_cycle;Signal;HPM_P1;HPM_P2
2022/10/21 00:00:51;177731.00;0.59;307.58;0.00;0.00;0.62;;;;;18.70;13.50;;;;;;2276670;61;1515;-84
2022/10/21 00:03:19;171749.00;0.57;297.28;65727.00;0.22;114.38;;;;;18.60;14.20;;;;;;2276597;61;1082;-84
2022/10/21 00:05:46;139546.00;0.47;241.79;29217.00;0.10;51.23;;;;;18.70;14.50;;;;;;2276661;61;1295;-86
2022/10/21 00:08:13;47619.00;0.16;83.07;0.00;0.00;0.62;;;;;18.80;14.60;;;;;;2276570;61;1040;-85
2022/10/21 00:10:40;148471.00;0.49;257.17;0.00;0.00;0.62;;;;;19.10;14.00;;;;;;2276616;61;1112;-84
2022/10/21 00:13:09;447600.00;1.49;771.65;31568.00;0.11;55.30;;;;;19.00;13.90;;;;;;2276567;61;903;-85
2022/10/21 00:15:37;49339.00;0.16;86.04;0.00;0.00;0.62;;;;;19.10;14.00;;;;;;2276436;61;1427;-85
2022/10/21 00:18:04;298409.00;0.99;515.19;0.00;0.00;0.62;;;;;19.20;13.40;;;;;;2276447;61;2001;-85
2022/10/21 00:20:31;136316.00;0.45;236.22;0.00;0.00;0.62;;;;;19.20;13.20;;;;;;2276630;61;1104;-86
2022/10/21 00:22:57;349010.00;1.16;602.16;44837.00;0.15;78.26;;;;;19.50;13.00;;;;;;2276491;61;1045;-83
2022/10/21 00:25:27;410787.00;1.37;708.35;27538.00;0.09;48.32;;;;;19.70;12.60;;;;;;2276631;61;1276;-85
2022/10/21 00:27:55;250764.00;0.84;433.26;0.00;0.00;0.62;;;;;19.70;12.10;;;;;;2276572;61;930;-84
2022/10/21 00:30:24;295827.00;0.99;510.75;0.00;0.00;0.62;;;;;19.40;12.30;;;;;;2276608;61;1099;-84
2022/10/21 00:32:51;393673.00;1.31;678.93;0.00;0.00;0.62;;;;;19.30;12.70;;;;;;2276467;61;1675;-85
2022/10/21 00:35:18;546110.00;1.82;941.25;67066.00;0.22;116.69;;;;;19.30;13.00;;;;;;2276483;61;1423;-84
2022/10/21 00:37:45;425661.00;1.42;733.92;0.00;0.00;0.62;;;;;19.40;13.10;;;;;;2276594;61;1206;-85
2022/10/21 00:40:12;353950.00;1.18;610.65;73003.00;0.24;126.95;;;;;19.60;12.60;;;;;;2276348;61;2083;-85
2022/10/21 00:42:41;369961.00;1.23;638.17;13288.00;0.04;23.65;;;;;19.70;12.00;;;;;;2276513;61;1748;-86
2022/10/21 00:45:21;316254.00;1.05;545.86;19597.00;0.07;34.57;;;;;19.60;11.60;;;;;;2276239;61;1635;-84
2022/10/21 00:47:56;222722.00;0.74;385.03;0.00;0.00;0.62;;;;;19.00;13.60;;;;;;2276497;61;1102;-86
2022/10/21 00:50:30;633734.00;2.11;1092.50;17494.00;0.06;30.93;;;;;18.80;14.30;;;;;;2276480;61;1627;-85
2022/10/21 00:53:00;239700.00;0.80;414.24;0.00;0.00;0.62;;;;;18.70;15.80;;;;;;2276512;61;1159;-84
2022/10/21 00:55:35;305245.00;1.02;526.94;0.00;0.00;0.62;;;;;18.40;16.20;;;;;;2276393;61;1519;-83
2022/10/21 00:58:04;275416.00;0.92;475.66;25789.00;0.09;45.29;;;;;18.40;16.70;;;;;;2273102;61;2249;-85
2022/10/21 01:00:31;454198.00;1.51;783.00;0.00;0.00;0.62;;;;;18.20;17.30;;;;;;2276254;61;1132;-84
2022/10/21 01:03:00;283112.00;0.94;488.89;34827.00;0.12;60.94;;;;;18.50;16.30;;;;;;2276585;61;1132;-84
2022/10/21 01:05:28;193127.00;0.64;334.09;0.00;0.00;0.62;;;;;18.90;15.70;;;;;;2276434;61;1352;-85
2022/10/21 01:07:56;216291.00;0.72;373.96;0.00;0.00;0.62;;;;;19.30;14.10;;;;;;2276200;61;1124;-85
2022/10/21 01:10:23;361952.00;1.21;624.40;0.00;0.00;0.62;;;;;19.50;13.30;;;;;;2276506;61;908;-85
2022/10/21 01:13:06;151838.00;0.51;262.98;0.00;0.00;0.62;;;;;19.50;13.50;;;;;;2276485;61;1042;-84
2022/10/21 01:15:41;303416.00;1.01;523.79;58738.00;0.20;102.30;;;;;19.60;13.10;;;;;;2276207;61;1281;-85
2022/10/21 01:18:18;472436.00;1.57;814.38;0.00;0.00;0.62;;;;;19.40;13.70;;;;;;2276224;61;2008;-83
2022/10/21 01:21:07;375049.00;1.25;646.92;0.00;0.00;0.62;;;;;19.30;13.90;;;;;;2276284;61;1006;-84
2022/10/21 01:24:13;251015.00;0.84;433.70;0.00;0.00;0.62;;;;;19.30;13.70;;;;;;2276236;61;913;-86
2022/10/21 01:27:05;393384.00;1.31;678.43;0.00;0.00;0.62;;;;;19.60;13.10;;;;;;2276395;61;1004;-85
2022/10/21 01:29:57;211063.00;0.70;364.96;0.00;0.00;0.62;;;;;19.50;13.50;;;;;;2276228;61;1119;-85
2022/10/21 01:32:40;581926.00;1.94;1003.02;62585.00;0.21;108.95;;;;;19.50;13.10;;;;;;2275130;61;1228;-85
2022/10/21 01:35:16;143808.00;0.48;249.14;0.00;0.00;0.62;;;;;19.30;13.60;;;;;;2276204;61;1457;-85
2022/10/21 01:37:56;324797.00;1.08;560.54;0.00;0.00;0.62;;;;;19.40;13.70;;;;;;2276178;61;1047;-84
2022/10/21 01:40:32;354051.00;1.18;610.82;0.00;0.00;0.62;;;;;19.40;13.10;;;;;;2276373;61;1963;-85
2022/10/21 01:43:07;570978.00;1.90;984.13;9580.00;0.03;17.22;;;;;19.40;13.20;;;;;;2276467;61;1140;-84
2022/10/21 01:45:40;237149.00;0.79;409.85;0.00;0.00;0.62;;;;;19.50;13.80;;;;;;2276266;61;1511;-84
2022/10/21 01:48:13;518687.00;1.73;894.00;42025.00;0.14;73.39;;;;;19.70;13.00;;;;;;2276280;61;1111;-85
2022/10/21 01:50:47;244458.00;0.81;422.42;0.00;0.00;0.62;;;;;19.70;13.10;;;;;;2276459;61;957;-86
2022/10/21 01:53:16;307176.00;1.02;530.26;0.00;0.00;0.62;;;;;19.60;13.10;;;;;;2276217;61;1702;-85
2022/10/21 01:55:47;150923.00;0.50;261.40;37566.00;0.13;65.68;;;;;19.30;14.60;;;;;;2276333;61;1280;-85
2022/10/21 01:58:18;285159.00;0.95;492.41;31887.00;0.11;55.85;;;;;19.30;14.20;;;;;;2276189;61;1070;-85
2022/10/21 02:00:47;441438.00;1.47;761.06;24132.00;0.08;42.42;;;;;19.30;14.30;;;;;;2276263;61;2180;-84
2022/10/21 02:03:20;238533.00;0.80;412.23;0.00;0.00;0.62;;;;;19.30;14.50;;;;;;2276330;61;1442;-85
2022/10/21 02:05:47;240651.00;0.80;415.87;0.00;0.00;0.62;;;;;19.30;14.70;;;;;;2276406;61;1481;-84
2022/10/21 02:08:14;285985.00;0.95;493.83;0.00;0.00;0.62;;;;;19.40;14.30;;;;;;2276243;61;1016;-84
2022/10/21 02:10:45;191413.00;0.64;331.14;0.00;0.00;0.62;;;;;19.30;14.40;;;;;;2275893;61;1258;-85
2022/10/21 02:13:17;591090.00;1.97;1018.84;154159.00;0.51;266.97;;;;;19.40;14.80;;;;;;2276122;61;1034;-85
2022/10/21 02:15:44;247119.00;0.82;427.00;28706.00;0.10;50.34;;;;;19.40;14.50;;;;;;2275074;61;1388;-84
2022/10/21 02:18:21;425381.00;1.42;733.44;45349.00;0.15;79.14;;;;;19.50;14.40;;;;;;2275713;61;1084;-84
2022/10/21 02:20:52;133110.00;0.44;230.69;0.00;0.00;0.62;;;;;19.60;14.20;;;;;;2275644;61;1940;-85
2022/10/21 02:23:26;107411.00;0.36;186.36;0.00;0.00;0.62;;;;;19.50;14.50;;;;;;2275606;61;1127;-85
2022/10/21 02:25:54;208491.00;0.69;360.54;50899.00;0.17;88.74;;;;;19.20;14.80;;;;;;2275763;61;1520;-85
2022/10/21 02:28:21;418529.00;1.40;721.66;0.00;0.00;0.62;;;;;19.20;14.50;;;;;;2275630;61;1045;-85
2022/10/21 02:31:04;236498.00;0.79;408.73;0.00;0.00;0.62;;;;;19.10;15.00;;;;;;2275769;61;1154;-85
2022/10/21 02:33:46;212475.00;0.71;367.39;0.00;0.00;0.62;;;;;19.20;15.00;;;;;;2275365;61;1053;-85
2022/10/21 02:36:22;95174.00;0.32;165.24;0.00;0.00;0.62;;;;;19.50;14.10;;;;;;2275527;61;1783;-85
2022/10/21 02:38:55;111815.00;0.37;193.96;0.00;0.00;0.62;;;;;19.70;13.60;;;;;;2275372;61;1919;-84
2022/10/21 02:41:24;233718.00;0.78;403.94;0.00;0.00;0.62;;;;;19.70;13.50;;;;;;2275579;61;1139;-85
2022/10/21 02:43:56;155377.00;0.52;269.07;0.00;0.00;0.62;;;;;19.80;12.90;;;;;;2275688;61;1057;-85
2022/10/21 02:46:24;129144.00;0.43;223.85;0.00;0.00;0.62;;;;;19.80;13.40;;;;;;2275565;61;1419;-85
2022/10/21 02:48:53;74495.00;0.25;129.53;0.00;0.00;0.62;;;;;19.90;13.10;;;;;;2275849;61;1125;-85
2022/10/21 02:51:20;58109.00;0.19;101.21;0.00;0.00;0.62;;;;;20.00;12.50;;;;;;2275792;61;1074;-85
2022/10/21 02:53:47;241599.00;0.81;417.50;0.00;0.00;0.62;;;;;20.00;12.70;;;;;;2275644;61;1329;-84
2022/10/21 02:56:14;306535.00;1.02;529.15;0.00;0.00;0.62;;;;;20.00;12.30;;;;;;2275595;61;1293;-83
2022/10/21 02:58:41;151958.00;0.51;263.18;9085.00;0.03;16.36;;;;;19.70;13.30;;;;;;2276161;61;2000;-84
2022/10/21 03:01:08;192395.00;0.64;332.83;0.00;0.00;0.62;;;;;19.50;14.00;;;;;;2276030;61;1092;-83
2022/10/21 03:03:35;554288.00;1.85;955.35;78657.00;0.26;136.72;;;;;19.60;13.90;;;;;;2276181;61;1115;-84
2022/10/21 03:06:03;268135.00;0.89;463.14;0.00;0.00;0.62;;;;;19.60;13.70;;;;;;2276127;61;1355;-83
2022/10/21 03:08:30;123124.00;0.41;213.47;0.00;0.00;0.62;;;;;19.60;13.90;;;;;;2276199;61;1137;-83
2022/10/21 03:10:57;480830.00;1.60;828.83;104170.00;0.35;180.77;;;;;19.70;13.80;;;;;;2275874;61;1242;-85
2022/10/21 03:13:24;110594.00;0.37;191.85;0.00;0.00;0.62;;;;;19.60;13.90;;;;;;2275452;61;1132;-85
2022/10/21 03:15:51;169535.00;0.57;293.47;0.00;0.00;0.62;;;;;19.50;14.00;;;;;;2275264;61;1595;-85
2022/10/21 03:18:19;69637.00;0.23;121.13;0.00;0.00;0.62;;;;;19.50;14.70;;;;;;2275343;61;1108;-85
2022/10/21 03:20:48;124987.00;0.42;216.68;0.00;0.00;0.62;;;;;19.60;14.70;;;;;;2275428;61;1950;-85
2022/10/21 03:23:17;85209.00;0.28;148.03;0.00;0.00;0.62;;;;;19.70;13.70;;;;;;2275635;61;1140;-85
2022/10/21 03:25:44;623532.00;2.08;1074.87;30089.00;0.10;52.74;;;;;19.60;14.20;;;;;;2275595;61;1363;-85
2022/10/21 03:28:10;296903.00;0.99;512.60;59948.00;0.20;104.39;;;;;19.60;13.90;;;;;;2275511;61;1082;-85
2022/10/21 03:30:37;46821.00;0.16;81.69;0.00;0.00;0.62;;;;;19.70;14.20;;;;;;2275831;61;1045;-84
2022/10/21 03:33:04;147822.00;0.49;256.05;0.00;0.00;0.62;;;;;19.80;13.50;;;;;;2275527;61;2017;-85
2022/10/21 03:35:32;208055.00;0.69;359.79;0.00;0.00;0.62;;;;;19.70;13.60;;;;;;2275467;61;1360;-86
2022/10/21 03:37:58;180514.00;0.60;312.37;0.00;0.00;0.62;;;;;19.70;13.70;;;;;;2275634;61;1159;-84
2022/10/21 03:40:29;146022.00;0.49;252.95;0.00;0.00;0.62;;;;;19.80;13.50;;;;;;2275631;61;1941;-85
2022/10/21 03:42:56;179031.00;0.60;309.82;0.00;0.00;0.62;;;;;19.90;14.00;;;;;;2276022;61;1120;-85
2022/10/21 03:45:22;25184.00;0.08;44.25;0.00;0.00;0.62;;;;;19.70;14.10;;;;;;2275410;61;1324;-85
2022/10/21 03:47:50;271335.00;0.90;468.64;49583.00;0.17;86.47;;;;;19.30;14.80;;;;;;2275410;61;1128;-85
2022/10/21 03:50:18;59924.00;0.20;104.35;0.00;0.00;0.62;;;;;19.40;15.00;;;;;;2275979;61;1039;-85
2022/10/21 03:52:45;264235.00;0.88;456.43;0.00;0.00;0.62;;;;;19.40;14.60;;;;;;2276046;61;1244;-83
2022/10/21 03:55:13;332479.00;1.11;573.75;0.00;0.00;0.62;;;;;19.40;14.80;;;;;;2275953;61;1395;-84
2022/10/21 03:57:41;238504.00;0.80;412.18;3688.00;0.01;7.01;;;;;19.30;14.80;;;;;;2275658;61;1147;-84
2022/10/21 04:00:09;329618.00;1.10;568.83;0.00;0.00;0.62;;;;;19.20;15.30;;;;;;2275804;61;1923;-84
2022/10/21 04:02:36;292212.00;0.97;504.53;0.00;0.00;0.62;;;;;19.20;15.70;;;;;;2275899;61;1360;-84
2022/10/21 04:05:02;226285.00;0.75;391.16;0.00;0.00;0.62;;;;;19.20;16.00;;;;;;2275939;61;1231;-85
2022/10/21 04:07:29;292490.00;0.97;505.01;32304.00;0.11;56.57;;;;;19.30;15.30;;;;;;2276149;61;1178;-84
2022/10/21 04:09:56;174398.00;0.58;301.84;0.00;0.00;0.62;;;;;19.40;14.90;;;;;;2276393;61;1122;-85
2022/10/21 04:12:23;538006.00;1.79;927.29;68454.00;0.23;119.09;;;;;19.50;15.10;;;;;;2276338;61;1436;-85
2022/10/21 04:14:51;728855.00;2.43;1257.31;17343.00;0.06;30.67;;;;;19.50;14.80;;;;;;2276362;61;1246;-85
2022/10/21 04:17:19;666844.00;2.22;1149.79;64004.00;0.21;111.40;;;;;19.50;15.50;;;;;;2276510;61;1642;-85
2022/10/21 04:19:45;359746.00;1.20;620.61;0.00;0.00;0.62;;;;;19.70;14.40;;;;;;2276423;61;1992;-86
2022/10/21 04:22:13;344379.00;1.15;594.20;0.00;0.00;0.62;;;;;19.80;14.10;;;;;;2276638;61;1149;-85
2022/10/21 04:24:39;245142.00;0.82;423.60;0.00;0.00;0.62;;;;;20.00;13.30;;;;;;2276638;61;1363;-84
2022/10/21 04:27:07;313964.00;1.05;541.92;10252.00;0.03;18.39;;;;;19.90;13.70;;;;;;2276579;61;1112;-85
2022/10/21 04:29:33;505427.00;1.68;871.17;53813.00;0.18;93.78;;;;;19.80;13.70;;;;;;2276570;61;1407;-85
2022/10/21 04:32:02;599261.00;2.00;1032.94;0.00;0.00;0.62;;;;;19.70;14.20;;;;;;2276675;61;1027;-85
2022/10/21 04:34:29;794772.00;2.65;1372.01;88038.00;0.29;152.92;;;;;19.50;14.50;;;;;;2276578;61;1597;-85
2022/10/21 04:36:56;817619.00;2.73;1411.87;0.00;0.00;0.62;;;;;19.10;15.40;;;;;;2276642;61;1030;-85
2022/10/21 04:39:25;616488.00;2.05;1062.70;100066.00;0.33;173.69;;;;;19.10;16.60;;;;;;2276489;61;1919;-84
2022/10/21 04:41:54;407755.00;1.36;703.14;0.00;0.00;0.62;;;;;19.20;15.90;;;;;;2276554;61;1045;-85
2022/10/21 04:44:21;536766.00;1.79;925.15;0.00;0.00;0.62;;;;;19.40;15.50;;;;;;2276500;61;1472;-85
2022/10/21 04:46:49;361417.00;1.20;623.48;0.00;0.00;0.62;;;;;19.40;15.50;;;;;;2276583;61;1749;-85
2022/10/21 04:49:17;618403.00;2.06;1066.01;0.00;0.00;0.62;;;;;19.50;14.90;;;;;;2276240;61;1171;-85
2022/10/21 04:51:44;722633.00;2.41;1246.51;147720.00;0.49;255.88;;;;;19.70;14.80;;;;;;2276438;61;1532;-85
2022/10/21 04:54:12;334392.00;1.11;577.03;22708.00;0.08;39.96;;;;;19.80;14.70;;;;;;2276563;61;1098;-84
2022/10/21 04:56:39;412853.00;1.38;711.90;611.00;0.00;1.68;;;;;19.80;14.50;;;;;;2276270;61;1389;-84
2022/10/21 04:59:06;523194.00;1.74;901.77;0.00;0.00;0.62;;;;;19.80;14.60;;;;;;2276403;61;1052;-84
2022/10/21 05:01:33;540456.00;1.80;931.51;0.00;0.00;0.62;;;;;19.70;14.90;;;;;;2276516;61;2025;-84
2022/10/21 05:04:00;573119.00;1.91;987.83;9055.00;0.03;16.31;;;;;19.70;15.10;;;;;;2276558;61;1123;-86
2022/10/21 05:06:28;338922.00;1.13;584.82;0.00;0.00;0.62;;;;;19.50;15.20;;;;;;2276193;61;1234;-84
2022/10/21 05:08:55;273507.00;0.91;472.37;0.00;0.00;0.62;;;;;19.60;15.60;;;;;;2276394;61;1229;-84
2022/10/21 05:11:22;455130.00;1.52;784.61;0.00;0.00;0.62;;;;;19.50;16.20;;;;;;2276172;61;1273;-84
2022/10/21 05:13:49;374123.00;1.25;645.32;0.00;0.00;0.62;;;;;19.40;16.70;;;;;;2276361;61;1193;-84
2022/10/21 05:16:16;602314.00;2.01;1038.22;67763.00;0.23;117.89;;;;;19.50;15.90;;;;;;2276494;61;1391;-84
2022/10/21 05:18:42;492445.00;1.64;848.82;27452.00;0.09;48.17;;;;;19.80;15.00;;;;;;2276456;61;1080;-84
2022/10/21 05:53:53;1784744.00;5.95;3191.30;21891.00;0.07;38.54;;;;;20.20;14.70;;;;;;2270310;61;1011;-90
2022/10/21 05:56:20;353820.00;1.18;610.43;14883.00;0.05;26.41;;;;;19.90;15.00;;;;;;2268897;61;1273;-90
2022/10/21 05:58:47;141183.00;0.47;244.61;53452.00;0.18;93.16;;;;;19.80;15.70;;;;;;2268882;61;1402;-89
2022/10/21 06:01:14;267804.00;0.89;462.57;57048.00;0.19;99.37;;;;;19.90;15.70;;;;;;2268790;61;1998;-89
2022/10/21 06:03:41;163070.00;0.54;282.33;0.00;0.00;0.62;;;;;19.90;15.50;;;;;;2268787;61;1308;-89
2022/10/21 06:06:10;449432.00;1.50;774.81;35127.00;0.12;61.46;;;;;19.90;15.80;;;;;;2268805;61;2195;-88
2022/10/21 06:08:39;271261.00;0.90;468.51;0.00;0.00;0.62;;;;;19.80;15.60;;;;;;2268100;61;1529;-89
2022/10/21 06:18:40;1049853.00;3.50;1820.97;0.00;0.00;0.62;;;;;20.20;15.20;;;;;;833168;56;3657;-88
2022/10/21 06:21:07;552477.00;1.84;952.23;0.00;0.00;0.62;;;;;20.30;14.40;;;;;;2275892;61;1919;-87
2022/10/21 06:23:35;211155.00;0.70;365.12;0.00;0.00;0.62;;;;;20.10;14.60;;;;;;2276222;61;1007;-89
2022/10/21 06:26:04;38612.00;0.13;67.49;0.00;0.00;0.62;;;;;19.80;15.70;;;;;;2276139;61;1382;-87
2022/10/21 06:28:34;221262.00;0.74;382.52;0.00;0.00;0.62;;;;;19.90;15.50;;;;;;2276164;61;1927;-88
2022/10/21 06:31:01;323592.00;1.08;558.47;11537.00;0.04;20.61;;;;;19.80;15.80;;;;;;2276184;61;1612;-89
2022/10/21 06:33:28;221681.00;0.74;383.24;0.00;0.00;0.62;;;;;19.80;15.70;;;;;;2276197;61;1044;-87
2022/10/21 06:35:57;171992.00;0.57;297.70;27084.00;0.09;47.54;;;;;19.70;15.70;;;;;;2276103;61;1761;-88
2022/10/21 06:38:24;176469.00;0.59;305.41;0.00;0.00;0.62;;;;;19.80;15.90;;;;;;2276238;61;1366;-89
2022/10/21 06:40:55;336057.00;1.12;579.90;0.00;0.00;0.62;;;;;19.90;15.80;;;;;;2276208;61;1926;-89
2022/10/21 06:43:21;138374.00;0.46;239.77;0.00;0.00;0.62;;;;;19.70;15.90;;;;;;2276068;61;1593;-89
2022/10/21 06:45:49;265527.00;0.89;458.65;22950.00;0.08;40.38;;;;;19.70;16.50;;;;;;2276197;61;1468;-88
2022/10/21 06:48:18;212144.00;0.71;366.83;0.00;0.00;0.62;;;;;19.80;16.00;;;;;;2276215;61;1462;-87
2022/10/21 06:50:48;348843.00;1.16;601.87;0.00;0.00;0.62;;;;;19.90;15.80;;;;;;2275909;61;939;-88
2022/10/21 06:53:17;459259.00;1.53;791.71;0.00;0.00;0.62;;;;;19.90;15.80;;;;;;2276068;61;1450;-89
2022/10/21 07:00:43;911279.00;3.04;1575.94;0.00;0.00;0.62;;;;;19.90;15.60;;;;;;2269444;61;1905;-87
2022/10/21 07:03:12;117439528.00;391.47;65610264.00;45803.00;0.15;79.93;;;;;20.00;15.60;;;;;;2267885;61;903;-87
2022/10/21 07:20:51;864337.00;2.88;1493.57;0.00;0.00;0.62;;;;;20.00;16.50;;;;;;2269776;61;1968;-89
2022/10/21 07:25:53;1316490.00;4.39;2302.32;73505.00;0.25;127.82;;;;;20.00;16.50;;;;;;2165751;59;1766;-88
2022/10/21 07:28:23;375802.00;1.25;648.21;60336.00;0.20;105.06;;;;;20.10;16.00;;;;;;2280982;40;3743;-87
2022/10/21 07:30:50;680937.00;2.27;1174.20;81047.00;0.27;140.85;;;;;20.20;16.20;;;;;;2276445;61;1774;-88
2022/10/21 07:33:19;483126.00;1.61;832.78;65955.00;0.22;114.77;;;;;20.20;16.80;;;;;;2291646;40;3747;-87
2022/10/21 07:35:49;120085472.00;400.28;70149832.00;60551.00;0.20;105.43;;;;;20.20;16.70;;;;;;2276565;61;1673;-86
2022/10/21 07:45:43;1275024.00;4.25;2226.47;70290.00;0.23;122.26;;;;;20.30;16.30;;;;;;2270295;61;1419;-88
2022/10/21 07:50:39;1235723.00;4.12;2154.94;53067.00;0.18;92.49;;;;;20.50;15.90;;;;;;2270558;61;1531;-89
2022/10/21 07:58:18;1502561.00;5.01;2647.94;70424.00;0.23;122.49;;;;;20.40;17.00;;;;;;2278414;61;1248;-88
2022/10/21 08:00:45;665713.00;2.22;1147.83;165369.00;0.55;286.29;;;;;20.20;17.40;;;;;;2276597;61;1923;-87
2022/10/21 08:03:12;694485.00;2.31;1197.68;106700.00;0.36;185.14;;;;;20.00;17.50;;;;;;2276585;61;1636;-88
2022/10/21 08:05:41;578226.00;1.93;996.64;91476.00;0.30;158.86;;;;;19.80;18.40;;;;;;2276648;61;1365;-87
2022/10/21 08:08:08;489223.00;1.63;843.27;128442.00;0.43;222.64;;;;;20.00;17.40;;;;;;2276548;61;1004;-87
2022/10/21 08:10:44;463536.00;1.55;799.07;57675.00;0.19;100.46;;;;;20.20;17.30;;;;;;2276564;61;2165;-89
2022/10/21 08:13:14;380478.00;1.27;656.25;64736.00;0.22;112.66;;;;;20.40;16.20;;;;;;2276603;61;1625;-88
2022/10/21 08:15:51;621287.00;2.07;1070.99;66787.00;0.22;116.21;;;;;20.60;16.00;;;;;;2276340;61;1393;-85
2022/10/21 08:18:19;662319.00;2.21;1141.95;59211.00;0.20;103.11;;;;;20.30;15.70;;;;;;2276563;61;985;-87
2022/10/21 08:20:47;610741.00;2.04;1052.77;69360.00;0.23;120.65;;;;;20.20;16.80;;;;;;2276628;61;2006;-87
2022/10/21 08:23:19;703111.00;2.34;1212.63;56802.00;0.19;98.95;;;;;20.20;17.50;;;;;;2276571;61;941;-85
2022/10/21 08:25:47;761805.00;2.54;1314.59;41621.00;0.14;72.69;;;;;20.20;17.00;;;;;;2276587;61;1387;-87
2022/10/21 08:28:15;325135.00;1.08;561.12;0.00;0.00;0.62;;;;;20.20;17.40;;;;;;2276690;61;1047;-86
2022/10/21 08:30:44;453950.00;1.51;782.58;70701.00;0.24;122.97;;;;;20.30;16.80;;;;;;2276525;61;914;-86
2022/10/21 08:33:15;421568.00;1.41;726.89;59814.00;0.20;104.16;;;;;19.80;17.20;;;;;;2276575;61;1065;-87
2022/10/21 08:35:54;524503.00;1.75;904.02;41164.00;0.14;71.90;;;;;19.40;19.00;;;;;;2276404;61;1581;-86
2022/10/21 08:38:24;541818.00;1.81;933.86;51059.00;0.17;89.02;;;;;19.80;18.40;;;;;;2276608;61;1110;-87
2022/10/21 08:40:54;339159.00;1.13;585.23;0.00;0.00;0.62;;;;;20.00;17.40;;;;;;2276604;61;1983;-87
2022/10/21 08:43:27;524519.00;1.75;904.05;0.00;0.00;0.62;;;;;20.10;17.40;;;;;;2276637;61;930;-86
2022/10/21 08:46:07;236013.00;0.79;407.89;0.00;0.00;0.62;;;;;20.10;17.40;;;;;;2276442;61;1301;-87
2022/10/21 08:48:41;416067.00;1.39;717.43;93557.00;0.31;162.45;;;;;20.40;16.60;;;;;;2276485;61;1393;-88
2022/10/21 08:51:22;455287.00;1.52;784.88;135006.00;0.45;233.96;;;;;20.60;15.60;;;;;;2276458;61;1552;-88
2022/10/21 08:53:53;308565.00;1.03;532.64;45169.00;0.15;78.83;;;;;20.70;15.80;;;;;;2276585;61;1017;-88
2022/10/21 08:56:30;677843.00;2.26;1168.84;55331.00;0.18;96.40;;;;;20.70;15.00;;;;;;2276435;61;1467;-86
2022/10/21 08:59:00;196740.00;0.66;340.31;0.00;0.00;0.62;;;;;20.80;15.50;;;;;;2276611;61;912;-88
2022/10/21 09:01:35;449336.00;1.50;774.64;0.00;0.00;0.62;;;;;20.90;16.00;;;;;;2276406;61;2001;-88
2022/10/21 09:04:13;215866.00;0.72;373.23;0.00;0.00;0.62;;;;;21.00;13.80;;;;;;2276482;61;1122;-88
2022/10/21 09:06:49;323704.00;1.08;558.66;21884.00;0.07;38.53;;;;;20.90;14.70;;;;;;2276266;61;1567;-86
2022/10/21 09:09:23;252458.00;0.84;436.18;0.00;0.00;0.62;;;;;20.90;14.40;;;;;;2276496;61;1079;-86
2022/10/21 09:11:59;518385.00;1.73;893.48;40328.00;0.13;70.46;;;;;20.90;14.30;;;;;;2276423;61;1612;-88
2022/10/21 09:14:42;402931.00;1.34;694.84;62218.00;0.21;108.31;;;;;20.70;15.30;;;;;;2276387;61;1396;-88
2022/10/21 09:17:25;387855.00;1.29;668.93;0.00;0.00;0.62;;;;;20.40;15.60;;;;;;2276503;61;1103;-88
2022/10/21 09:20:03;201175.00;0.67;347.95;0.00;0.00;0.62;;;;;20.10;17.00;;;;;;2276395;61;960;-86
2022/10/21 09:22:54;384958.00;1.28;663.95;96517.00;0.32;167.56;;;;;20.20;17.10;;;;;;2276438;61;2010;-87
2022/10/21 09:25:29;260017.00;0.87;449.18;0.00;0.00;0.62;;;;;19.90;16.90;;;;;;2276411;61;1329;-85
2022/10/21 09:27:57;272776.00;0.91;471.12;0.00;0.00;0.62;;;;;19.70;18.50;;;;;;2276304;61;1485;-86
2022/10/21 09:30:25;381967.00;1.27;658.81;53901.00;0.18;93.93;;;;;20.00;17.40;;;;;;2276331;61;1068;-86
2022/10/21 09:32:58;586997.00;1.96;1011.77;4722.00;0.02;8.80;;;;;20.50;16.60;;;;;;2276332;61;1112;-85
2022/10/21 09:35:33;379658.00;1.27;654.84;0.00;0.00;0.62;;;;;20.80;16.30;;;;;;2276204;61;1525;-88
2022/10/21 09:38:07;426930.00;1.42;736.11;0.00;0.00;0.62;;;;;21.00;15.70;;;;;;2276459;61;903;-87
2022/10/21 09:40:37;250793.00;0.84;433.31;64822.00;0.22;112.81;;;;;21.20;15.50;;;;;;2276272;61;2010;-87
2022/10/21 09:43:06;381003.00;1.27;657.15;18671.00;0.06;32.97;;;;;21.50;14.70;;;;;;2276361;61;1102;-88
2022/10/21 09:45:37;449086.00;1.50;774.21;22212.00;0.07;39.10;;;;;21.60;14.10;;;;;;2276291;61;1362;-87
2022/10/21 09:48:18;422940.00;1.41;729.25;64989.00;0.22;113.10;;;;;21.50;14.60;;;;;;2276224;61;996;-88
2022/10/21 09:50:48;222897.00;0.74;385.33;71694.00;0.24;124.69;;;;;21.70;14.20;;;;;;2276202;61;980;-88
2022/10/21 09:53:18;257143.00;0.86;444.24;23388.00;0.08;41.14;;;;;21.90;14.20;;;;;;2276350;61;2254;-87
2022/10/21 09:55:49;289767.00;0.97;500.33;0.00;0.00;0.62;;;;;22.20;14.00;;;;;;2276199;61;1303;-87
2022/10/21 09:58:28;312193.00;1.04;538.88;0.00;0.00;0.62;;;;;22.20;13.00;;;;;;2278807;40;3570;-86
2022/10/21 10:01:00;168502.00;0.56;291.69;0.00;0.00;0.62;;;;;22.30;14.20;;;;;;2276213;61;2000;-87
2022/10/21 10:03:35;287859.00;0.96;497.05;10283.00;0.03;18.44;;;;;22.40;13.60;;;;;;2276274;61;1470;-87
2022/10/21 10:06:07;390576.00;1.30;673.60;80360.00;0.27;139.66;;;;;22.40;13.60;;;;;;2276173;61;1467;-87
2022/10/21 10:08:42;336372.00;1.12;580.44;0.00;0.00;0.62;;;;;22.30;13.50;;;;;;2276310;61;1023;-87
2022/10/21 10:11:21;338863.00;1.13;584.72;0.00;0.00;0.62;;;;;22.30;13.10;;;;;;2276201;61;1669;-85
2022/10/21 10:13:50;252868.00;0.84;436.88;55991.00;0.19;97.55;;;;;22.40;12.30;;;;;;2276198;61;1474;-87
2022/10/21 10:16:26;694491.00;2.31;1197.69;81999.00;0.27;142.49;;;;;22.50;13.40;;;;;;2276125;61;1596;-85
2022/10/21 10:19:13;576464.00;1.92;993.60;69977.00;0.23;121.72;;;;;22.60;12.50;;;;;;2276248;61;1481;-88
2022/10/21 10:21:46;367167.00;1.22;633.37;46849.00;0.16;81.74;;;;;22.80;11.60;;;;;;2276230;61;1989;-88
2022/10/21 10:24:18;124875.00;0.42;216.49;0.00;0.00;0.62;;;;;22.70;11.70;;;;;;2276220;61;1492;-87
2022/10/21 10:26:46;374280.00;1.25;645.59;1697.00;0.01;3.56;;;;;22.60;10.90;;;;;;2276193;61;1562;-88
2022/10/21 10:29:25;331526.00;1.11;572.11;7166.00;0.02;13.04;;;;;22.50;11.70;;;;;;2276116;61;1255;-87
2022/10/21 10:31:57;234198.00;0.78;404.77;0.00;0.00;0.62;;;;;22.50;11.60;;;;;;2276239;61;1014;-87
2022/10/21 10:34:34;165844.00;0.55;287.11;0.00;0.00;0.62;;;;;22.50;12.40;;;;;;2276122;61;1549;-85
2022/10/21 10:37:08;476403.00;1.59;821.21;97678.00;0.33;169.56;;;;;22.60;12.40;;;;;;2276213;61;1597;-88
2022/10/21 10:39:39;558196.00;1.86;962.09;45156.00;0.15;78.81;;;;;22.40;11.10;;;;;;2276161;61;1486;-88
2022/10/21 10:44:41;1219112.00;4.06;2124.81;2422.00;0.01;4.82;;;;;22.20;10.40;;;;;;2274527;61;1300;-89
2022/10/21 10:47:21;261884.00;0.87;452.39;77107.00;0.26;134.04;;;;;21.90;10.30;;;;;;2272648;61;1505;-88
2022/10/21 10:49:59;191102.00;0.64;330.61;0.00;0.00;0.62;;;;;21.70;10.10;;;;;;2272784;61;1291;-87
2022/10/21 10:52:26;196171.00;0.65;339.33;0.00;0.00;0.62;;;;;21.50;10.20;;;;;;2272749;61;1420;-87
2022/10/21 10:55:17;163918.00;0.55;283.79;0.00;0.00;0.62;;;;;21.50;11.00;;;;;;2271911;61;1386;-88
2022/10/21 10:58:02;312600.00;1.04;539.58;0.00;0.00;0.62;;;;;21.30;10.40;;;;;;2272190;61;995;-87
2022/10/21 11:00:33;854911.00;2.85;1477.06;149201.00;0.50;258.43;;;;;21.00;11.10;;;;;;2299594;40;3586;-86
2022/10/21 11:03:07;1489878.00;4.97;2624.09;145204.00;0.48;251.54;;;;;21.20;10.30;;;;;;2278038;61;2005;-89
2022/10/21 11:05:49;288771.00;0.96;498.62;0.00;0.00;0.62;;;;;21.40;10.40;;;;;;2276872;61;1592;-88
2022/10/21 11:08:26;317561.00;1.06;548.11;6859.00;0.02;12.51;;;;;21.80;10.30;;;;;;2276844;61;1380;-88
2022/10/21 11:11:02;177948.00;0.59;307.96;0.00;0.00;0.62;;;;;21.80;9.00;;;;;;2276827;61;1363;-88
2022/10/21 11:13:36;243902.00;0.81;421.46;29283.00;0.10;51.34;;;;;22.10;7.90;;;;;;2276750;61;1014;-87